Time;durP1;ratioP1;P1;durP2;ratioP2;P2;SDS_P1;SDS_P2;PMS_P1;PMS_P2;Temp;Humidity;BMP_temperature;BMP_pressure;BME280_temperature;BME280_humidity;BME280_pressure;Samples;Min_cycle;Max_cycle;Signal;HPM_P1;HPM_P2
2020/12/17 00:05:01;;;;;;;12.93;8.30;;;;;;;;;;10435233;28;21059;-69
2020/12/17 00:10:04;;;;;;;12.30;7.57;;;;;;;;;;10424161;27;20737;-69
2020/12/17 00:15:07;;;;;;;14.53;9.00;;;;;;;;;;10446037;27;20588;-70
2020/12/17 00:20:10;;;;;;;16.23;8.83;;;;;;;;;;10445981;27;20250;-69
2020/12/17 00:25:12;;;;;;;14.87;8.90;;;;;;;;;;10432423;27;20645;-69
2020/12/17 00:30:15;;;;;;;12.60;7.80;;;;;;;;;;10439882;27;20673;-69
2020/12/17 00:35:18;;;;;;;14.70;7.40;;;;;;;;;;10432304;27;20219;-69
2020/12/17 00:40:20;;;;;;;12.10;7.73;;;;;;;;;;10433588;27;20588;-69
2020/12/17 00:45:22;;;;;;;13.67;8.47;;;;;;;;;;10437748;27;20208;-69
2020/12/17 00:50:25;;;;;;;14.30;8.93;;;;;;;;;;10435388;27;20210;-68
2020/12/17 00:55:27;;;;;;;13.77;7.83;;;;;;;;;;10430425;27;20249;-69
2020/12/17 01:00:29;;;;;;;14.63;8.87;;;;;;;;;;10440628;27;20246;-70
2020/12/17 01:05:32;;;;;;;14.50;8.23;;;;;;;;;;10428890;27;20547;-70
2020/12/17 01:10:34;;;;;;;15.40;8.17;;;;;;;;;;10433407;27;20787;-69
2020/12/17 01:15:36;;;;;;;11.87;8.53;;;;;;;;;;10425345;27;20584;-70
2020/12/17 01:20:38;;;;;;;13.90;8.90;;;;;;;;;;10432621;27;20496;-69
2020/12/17 01:25:40;;;;;;;14.30;7.87;;;;;;;;;;10428209;27;20432;-69
2020/12/17 01:30:42;;;;;;;14.00;8.97;;;;;;;;;;10428938;27;20214;-68
2020/12/17 01:35:45;;;;;;;13.17;9.13;;;;;;;;;;10442833;27;20210;-69
2020/12/17 01:40:47;;;;;;;13.37;7.73;;;;;;;;;;10428257;27;20239;-69
2020/12/17 01:45:49;;;;;;;13.37;7.90;;;;;;;;;;10452318;27;20223;-70
2020/12/17 01:50:51;;;;;;;14.33;8.30;;;;;;;;;;10444197;27;20454;-69
2020/12/17 01:55:56;;;;;;;13.77;6.70;;;;;;;;;;10466086;27;20235;-69
2020/12/17 02:00:58;;;;;;;12.33;7.33;;;;;;;;;;10441586;27;20241;-70
2020/12/17 02:06:01;;;;;;;12.43;7.77;;;;;;;;;;10445626;27;20223;-70
2020/12/17 02:11:03;;;;;;;12.43;7.70;;;;;;;;;;10434120;27;20215;-70
2020/12/17 02:16:06;;;;;;;13.63;7.90;;;;;;;;;;10441941;27;20223;-69
2020/12/17 02:21:09;;;;;;;9.77;6.67;;;;;;;;;;10435603;27;20231;-70
2020/12/17 02:26:11;;;;;;;10.67;7.63;;;;;;;;;;10442537;27;20216;-70
2020/12/17 02:31:13;;;;;;;13.43;8.10;;;;;;;;;;10438910;27;20598;-70
2020/12/17 02:36:15;;;;;;;17.97;8.27;;;;;;;;;;10432735;27;20218;-70
2020/12/17 02:41:18;;;;;;;15.17;8.43;;;;;;;;;;10439099;27;20732;-70
2020/12/17 02:46:20;;;;;;;11.97;8.13;;;;;;;;;;10445310;27;21124;-70
2020/12/17 02:51:22;;;;;;;11.47;7.60;;;;;;;;;;10438502;27;20300;-70
2020/12/17 02:56:24;;;;;;;14.97;7.67;;;;;;;;;;10438748;27;20246;-70
2020/12/17 03:01:27;;;;;;;14.47;8.20;;;;;;;;;;10436991;27;20250;-70
2020/12/17 03:06:29;;;;;;;12.17;7.80;;;;;;;;;;10443602;27;20212;-70
2020/12/17 03:11:31;;;;;;;12.83;8.17;;;;;;;;;;10434020;27;20215;-70
2020/12/17 03:16:33;;;;;;;13.43;8.10;;;;;;;;;;10436998;27;20207;-70
2020/12/17 03:21:35;;;;;;;13.33;6.60;;;;;;;;;;10444611;27;20232;-70
2020/12/17 03:26:38;;;;;;;16.87;8.23;;;;;;;;;;10436539;27;20215;-70
2020/12/17 03:31:40;;;;;;;13.13;7.90;;;;;;;;;;10441623;27;20221;-69
2020/12/17 03:36:41;;;;;;;18.20;8.07;;;;;;;;;;10432243;28;20225;-69
2020/12/17 03:41:44;;;;;;;11.93;7.10;;;;;;;;;;10431664;27;20262;-70
2020/12/17 03:46:46;;;;;;;15.33;7.17;;;;;;;;;;10433773;27;20215;-69
2020/12/17 03:51:48;;;;;;;10.70;6.43;;;;;;;;;;10443415;27;20298;-69
2020/12/17 03:56:51;;;;;;;13.77;7.60;;;;;;;;;;10434688;27;20249;-69
2020/12/17 04:01:53;;;;;;;14.67;7.23;;;;;;;;;;10439300;27;20245;-69
2020/12/17 04:06:55;;;;;;;16.13;8.60;;;;;;;;;;10435024;27;20220;-69
2020/12/17 04:11:58;;;;;;;16.43;8.60;;;;;;;;;;10434797;27;20211;-69
2020/12/17 04:17:00;;;;;;;16.83;9.37;;;;;;;;;;10429560;27;20207;-69
2020/12/17 04:22:02;;;;;;;12.13;8.70;;;;;;;;;;10434397;27;20242;-70
2020/12/17 04:27:04;;;;;;;16.63;10.73;;;;;;;;;;10442256;27;20238;-70
2020/12/17 04:32:06;;;;;;;16.57;9.70;;;;;;;;;;10437041;27;20215;-71
2020/12/17 04:37:08;;;;;;;20.37;9.60;;;;;;;;;;10437377;27;20230;-70
2020/12/17 04:42:12;;;;;;;17.40;10.27;;;;;;;;;;10432982;27;20266;-69
2020/12/17 04:47:18;;;;;;;13.27;8.60;;;;;;;;;;10436005;27;20214;-70
2020/12/17 04:52:21;;;;;;;16.00;10.23;;;;;;;;;;10435967;27;20215;-70
2020/12/17 04:57:26;;;;;;;18.33;10.07;;;;;;;;;;10440256;27;20242;-69
2020/12/17 05:02:29;;;;;;;17.30;11.87;;;;;;;;;;10421733;27;20284;-69
2020/12/17 05:07:31;;;;;;;20.03;12.30;;;;;;;;;;10436889;27;20219;-69
2020/12/17 05:12:34;;;;;;;27.03;12.23;;;;;;;;;;10434078;27;20214;-70
2020/12/17 05:17:36;;;;;;;19.73;11.97;;;;;;;;;;10439514;27;20211;-70
2020/12/17 05:22:41;;;;;;;19.73;12.60;;;;;;;;;;10437888;27;20804;-69
2020/12/17 05:27:44;;;;;;;21.10;13.80;;;;;;;;;;10436582;27;20432;-70
2020/12/17 05:32:46;;;;;;;21.67;13.83;;;;;;;;;;10433444;27;20211;-69
2020/12/17 05:37:49;;;;;;;23.57;13.63;;;;;;;;;;10444308;27;20231;-70
2020/12/17 05:42:52;;;;;;;23.23;14.67;;;;;;;;;;10440493;28;20239;-69
2020/12/17 05:48:12;;;;;;;25.67;15.83;;;;;;;;;;10445930;27;20211;-70
2020/12/17 05:53:15;;;;;;;27.63;17.07;;;;;;;;;;10442661;27;20704;-70
2020/12/17 05:58:17;;;;;;;29.70;17.60;;;;;;;;;;10444369;27;20936;-70
2020/12/17 06:03:26;;;;;;;26.80;14.90;;;;;;;;;;10445784;27;21030;-70
2020/12/17 06:08:33;;;;;;;24.73;15.87;;;;;;;;;;10436180;27;20215;-71
2020/12/17 06:13:37;;;;;;;29.90;17.60;;;;;;;;;;10433793;27;20214;-70
2020/12/17 06:18:43;;;;;;;25.63;16.93;;;;;;;;;;10453412;27;20941;-72
2020/12/17 06:23:44;;;;;;;28.13;17.67;;;;;;;;;;10442343;27;20242;-71
2020/12/17 06:28:48;;;;;;;33.70;19.07;;;;;;;;;;10438867;27;20243;-70
2020/12/17 06:33:51;;;;;;;37.37;18.67;;;;;;;;;;10449766;27;20215;-70
2020/12/17 06:38:53;;;;;;;33.33;16.30;;;;;;;;;;10435652;27;20215;-70
2020/12/17 06:43:56;;;;;;;33.17;17.50;;;;;;;;;;10430626;27;20258;-71
2020/12/17 06:48:58;;;;;;;28.53;16.40;;;;;;;;;;10433855;27;20605;-71
2020/12/17 06:54:02;;;;;;;26.43;16.13;;;;;;;;;;10434967;27;20615;-71
2020/12/17 06:59:14;;;;;;;25.27;15.50;;;;;;;;;;10437300;27;20707;-71
2020/12/17 07:04:40;;;;;;;30.50;16.80;;;;;;;;;;10441426;27;20241;-71
2020/12/17 07:09:42;;;;;;;27.63;16.67;;;;;;;;;;10437768;27;20254;-71
2020/12/17 07:14:45;;;;;;;29.93;17.43;;;;;;;;;;10436254;27;20216;-71
2020/12/17 07:19:48;;;;;;;33.17;17.53;;;;;;;;;;10439341;27;20215;-71
2020/12/17 07:24:51;;;;;;;32.47;16.53;;;;;;;;;;10442789;27;20885;-71
2020/12/17 07:30:00;;;;;;;33.77;16.60;;;;;;;;;;10437725;27;20211;-71
2020/12/17 07:35:15;;;;;;;29.27;17.37;;;;;;;;;;10430213;27;20860;-71
2020/12/17 07:40:28;;;;;;;33.87;17.80;;;;;;;;;;10435598;27;20218;-70
2020/12/17 07:45:40;;;;;;;30.77;17.70;;;;;;;;;;10444822;27;20644;-71
2020/12/17 07:50:42;;;;;;;32.37;17.57;;;;;;;;;;10443967;27;20593;-72
2020/12/17 07:55:44;;;;;;;29.77;17.83;;;;;;;;;;10440222;27;20680;-72
2020/12/17 08:00:47;;;;;;;31.47;18.33;;;;;;;;;;10455950;27;20215;-72
2020/12/17 08:05:50;;;;;;;35.53;19.07;;;;;;;;;;10446525;27;20296;-72
2020/12/17 08:10:52;;;;;;;35.23;18.93;;;;;;;;;;10437744;27;20208;-72
2020/12/17 08:15:55;;;;;;;32.53;18.17;;;;;;;;;;10436775;27;20231;-72
2020/12/17 08:21:00;;;;;;;34.77;18.83;;;;;;;;;;10430934;27;20594;-71
2020/12/17 08:26:03;;;;;;;31.37;17.53;;;;;;;;;;10433590;27;20786;-71
2020/12/17 08:31:07;;;;;;;26.03;15.77;;;;;;;;;;10432798;27;20214;-71
2020/12/17 08:36:09;;;;;;;28.07;16.80;;;;;;;;;;10426489;27;20211;-71
2020/12/17 08:41:11;;;;;;;26.10;15.80;;;;;;;;;;10428461;27;20701;-71
2020/12/17 08:46:15;;;;;;;25.33;15.43;;;;;;;;;;10443468;27;20223;-71
2020/12/17 08:51:18;;;;;;;27.97;14.63;;;;;;;;;;10440654;27;20210;-71
2020/12/17 08:56:21;;;;;;;23.77;13.27;;;;;;;;;;10447180;27;20615;-72
2020/12/17 09:01:24;;;;;;;25.87;14.57;;;;;;;;;;10441607;27;20671;-72
2020/12/17 09:06:27;;;;;;;24.30;13.00;;;;;;;;;;10449274;27;20218;-71
2020/12/17 09:11:31;;;;;;;20.47;12.30;;;;;;;;;;10433296;27;20230;-71
2020/12/17 09:16:34;;;;;;;20.97;12.23;;;;;;;;;;10447055;27;20247;-71
2020/12/17 09:21:37;;;;;;;19.27;10.73;;;;;;;;;;10445871;27;20243;-71
2020/12/17 09:26:38;;;;;;;18.03;10.03;;;;;;;;;;10463332;27;20466;-71
2020/12/17 09:31:41;;;;;;;18.93;8.03;;;;;;;;;;10438195;27;20207;-71
2020/12/17 09:36:44;;;;;;;19.40;9.10;;;;;;;;;;10438159;27;20214;-71
2020/12/17 09:41:51;;;;;;;17.13;8.77;;;;;;;;;;10442474;27;20235;-71
2020/12/17 09:46:54;;;;;;;18.20;7.77;;;;;;;;;;10448536;27;20973;-70
2020/12/17 09:52:04;;;;;;;14.73;7.77;;;;;;;;;;10443225;27;20699;-70
2020/12/17 09:57:07;;;;;;;17.27;6.70;;;;;;;;;;10442914;27;20235;-70
2020/12/17 10:02:10;;;;;;;12.33;6.63;;;;;;;;;;10441138;27;20242;-70
2020/12/17 10:07:12;;;;;;;14.00;6.50;;;;;;;;;;10429579;27;20955;-70
2020/12/17 10:12:14;;;;;;;19.53;6.80;;;;;;;;;;10434701;27;20222;-70
2020/12/17 10:17:17;;;;;;;12.83;5.53;;;;;;;;;;10445460;27;20704;-71
2020/12/17 10:22:19;;;;;;;13.23;6.03;;;;;;;;;;10440545;27;20249;-71
2020/12/17 10:27:21;;;;;;;18.90;6.77;;;;;;;;;;10437118;27;20211;-70
2020/12/17 10:32:23;;;;;;;12.37;5.17;;;;;;;;;;10476721;27;20240;-70
2020/12/17 10:37:25;;;;;;;18.13;6.23;;;;;;;;;;10440864;27;20223;-70
2020/12/17 10:42:27;;;;;;;15.60;5.23;;;;;;;;;;10439343;27;20243;-70
2020/12/17 10:47:30;;;;;;;17.37;6.90;;;;;;;;;;10436084;27;20864;-71
2020/12/17 10:52:32;;;;;;;18.13;5.90;;;;;;;;;;10431738;27;20203;-70
2020/12/17 10:57:34;;;;;;;20.13;5.87;;;;;;;;;;10437684;27;20227;-70
2020/12/17 11:02:37;;;;;;;22.70;6.17;;;;;;;;;;10446322;27;20342;-70
2020/12/17 11:07:39;;;;;;;22.00;6.20;;;;;;;;;;10441298;27;20207;-70
2020/12/17 11:12:41;;;;;;;18.03;5.43;;;;;;;;;;10432521;27;20207;-71
2020/12/17 11:17:44;;;;;;;18.00;5.27;;;;;;;;;;10436775;27;20627;-71
2020/12/17 11:22:46;;;;;;;18.20;5.80;;;;;;;;;;10447452;27;20294;-71
2020/12/17 11:27:49;;;;;;;15.37;6.03;;;;;;;;;;10434038;27;20603;-70
2020/12/17 11:32:52;;;;;;;16.27;5.80;;;;;;;;;;10441232;27;21174;-71
2020/12/17 11:37:54;;;;;;;15.10;5.33;;;;;;;;;;10428653;27;20215;-71
2020/12/17 11:42:56;;;;;;;17.20;5.73;;;;;;;;;;10431807;27;20250;-71
2020/12/17 11:47:59;;;;;;;15.27;5.07;;;;;;;;;;10430882;27;20223;-70
2020/12/17 11:53:01;;;;;;;18.00;6.00;;;;;;;;;;10438268;27;20674;-71
2020/12/17 11:58:03;;;;;;;17.87;5.07;;;;;;;;;;10441882;27;20215;-72
2020/12/17 12:03:06;;;;;;;19.57;5.03;;;;;;;;;;10442338;27;20238;-72
2020/12/17 12:08:08;;;;;;;13.03;4.40;;;;;;;;;;10454363;27;20803;-71
2020/12/17 12:13:10;;;;;;;18.10;4.53;;;;;;;;;;10429340;27;20211;-70
2020/12/17 12:18:12;;;;;;;16.90;5.00;;;;;;;;;;10435902;27;20219;-72
2020/12/17 12:23:16;;;;;;;18.90;4.63;;;;;;;;;;10437245;27;20239;-72
2020/12/17 12:28:18;;;;;;;18.13;5.17;;;;;;;;;;10427438;27;20577;-72
2020/12/17 12:33:21;;;;;;;13.70;4.37;;;;;;;;;;10432441;27;20211;-72
2020/12/17 12:38:23;;;;;;;16.50;4.07;;;;;;;;;;10446502;27;20211;-72
2020/12/17 12:43:25;;;;;;;15.23;4.70;;;;;;;;;;10435361;27;20246;-72
2020/12/17 12:48:27;;;;;;;16.23;4.43;;;;;;;;;;10442134;27;20212;-72
2020/12/17 12:53:30;;;;;;;19.60;4.87;;;;;;;;;;10427742;27;20713;-70
2020/12/17 12:58:32;;;;;;;13.10;4.60;;;;;;;;;;10435053;27;20217;-72
2020/12/17 13:03:35;;;;;;;16.40;4.50;;;;;;;;;;10434339;27;20242;-72
2020/12/17 13:08:37;;;;;;;19.00;4.87;;;;;;;;;;10451177;27;20207;-71
2020/12/17 13:13:38;;;;;;;11.87;4.53;;;;;;;;;;10430761;27;20211;-72
2020/12/17 13:18:41;;;;;;;18.40;4.93;;;;;;;;;;10438074;27;20219;-72
2020/12/17 13:23:43;;;;;;;17.30;5.27;;;;;;;;;;10424227;27;20705;-72
2020/12/17 13:28:46;;;;;;;18.37;4.67;;;;;;;;;;10436398;27;20212;-71
2020/12/17 13:33:48;;;;;;;13.77;4.40;;;;;;;;;;10439075;27;20218;-71
2020/12/17 13:38:50;;;;;;;21.53;4.50;;;;;;;;;;10457006;27;20214;-72
2020/12/17 13:43:52;;;;;;;13.83;4.60;;;;;;;;;;10460311;27;20423;-72
2020/12/17 13:48:55;;;;;;;17.23;4.67;;;;;;;;;;10444160;27;20241;-72
2020/12/17 13:53:56;;;;;;;17.77;5.07;;;;;;;;;;10442116;27;20242;-71
2020/12/17 13:58:58;;;;;;;11.57;4.23;;;;;;;;;;10440376;27;20207;-71
2020/12/17 14:04:01;;;;;;;14.10;4.67;;;;;;;;;;10446846;27;20235;-71
2020/12/17 14:09:04;;;;;;;15.20;4.60;;;;;;;;;;10436369;27;20670;-72
2020/12/17 14:14:06;;;;;;;18.73;4.60;;;;;;;;;;10439135;27;20207;-71
2020/12/17 14:19:09;;;;;;;17.50;4.47;;;;;;;;;;10429196;27;20207;-71
2020/12/17 14:24:11;;;;;;;20.90;4.50;;;;;;;;;;10451978;27;20241;-71
2020/12/17 14:29:13;;;;;;;16.07;4.77;;;;;;;;;;10435236;27;20777;-70
2020/12/17 14:34:16;;;;;;;15.53;5.13;;;;;;;;;;10438061;27;20678;-70
2020/12/17 14:39:18;;;;;;;18.77;5.00;;;;;;;;;;10435000;27;20226;-71
2020/12/17 16:41:45;;;;;;;19.93;6.60;;;;;;;;;;10385457;27;20747;-72
2020/12/17 16:46:51;;;;;;;22.90;7.20;;;;;;;;;;10384017;27;20219;-71
2020/12/17 16:51:53;;;;;;;22.23;8.13;;;;;;;;;;10387703;27;20216;-71
2020/12/17 16:56:57;;;;;;;14.60;7.07;;;;;;;;;;10383838;27;20238;-71
2020/12/17 17:01:59;;;;;;;18.93;7.00;;;;;;;;;;10387792;27;20239;-70
2020/12/17 17:07:05;;;;;;;20.03;6.77;;;;;;;;;;10383425;27;20638;-72
2020/12/17 17:12:08;;;;;;;19.47;7.80;;;;;;;;;;10397452;27;20239;-72
2020/12/17 17:17:10;;;;;;;17.10;6.87;;;;;;;;;;10404233;27;20693;-72
2020/12/17 17:22:12;;;;;;;17.53;6.90;;;;;;;;;;10391677;27;20240;-72
2020/12/17 17:27:15;;;;;;;17.53;7.40;;;;;;;;;;10396308;27;20633;-73
2020/12/17 17:32:17;;;;;;;32.40;7.70;;;;;;;;;;10397845;27;20216;-73
2020/12/17 17:37:18;;;;;;;25.67;8.67;;;;;;;;;;10403471;27;20231;-71
2020/12/17 17:42:21;;;;;;;19.97;8.70;;;;;;;;;;10433101;27;20235;-71
2020/12/17 17:47:23;;;;;;;18.47;7.90;;;;;;;;;;10437520;27;20628;-72
2020/12/17 17:52:28;;;;;;;22.93;8.10;;;;;;;;;;10432565;27;20245;-71
2020/12/17 17:57:32;;;;;;;22.43;8.67;;;;;;;;;;10439149;27;20225;-70
2020/12/17 18:02:34;;;;;;;27.83;9.37;;;;;;;;;;10439300;27;20250;-72
2020/12/17 18:07:37;;;;;;;26.10;9.07;;;;;;;;;;10429637;27;20214;-72
2020/12/17 18:12:40;;;;;;;26.17;8.77;;;;;;;;;;10427597;27;20219;-73
2020/12/17 18:17:42;;;;;;;20.40;8.77;;;;;;;;;;10428203;27;20219;-72
2020/12/17 18:22:47;;;;;;;26.03;9.93;;;;;;;;;;10423046;27;20282;-73
2020/12/17 18:27:50;;;;;;;20.57;9.83;;;;;;;;;;10429755;27;20216;-72
2020/12/17 18:32:52;;;;;;;21.40;9.20;;;;;;;;;;10434278;27;20211;-72
2020/12/17 18:37:55;;;;;;;23.93;10.73;;;;;;;;;;10432152;27;20239;-72
2020/12/17 18:42:58;;;;;;;27.10;8.47;;;;;;;;;;10431309;27;20242;-72
2020/12/17 18:48:00;;;;;;;20.23;8.00;;;;;;;;;;10431808;27;20245;-72
2020/12/17 18:53:02;;;;;;;19.40;7.80;;;;;;;;;;10436251;27;20218;-71
2020/12/17 18:58:05;;;;;;;23.23;7.17;;;;;;;;;;10431886;27;20215;-72
2020/12/17 19:03:07;;;;;;;20.83;7.63;;;;;;;;;;10443351;27;20250;-71
2020/12/17 19:08:09;;;;;;;25.33;7.23;;;;;;;;;;10438175;27;20210;-72
2020/12/17 19:13:14;;;;;;;19.77;7.07;;;;;;;;;;10440216;27;20219;-70
2020/12/17 19:18:16;;;;;;;22.47;8.43;;;;;;;;;;10438943;27;20215;-71
2020/12/17 19:23:19;;;;;;;24.27;7.90;;;;;;;;;;10430420;27;20657;-71
2020/12/17 19:28:22;;;;;;;23.10;7.73;;;;;;;;;;10429331;27;20237;-71
2020/12/17 19:33:24;;;;;;;24.83;7.53;;;;;;;;;;10442140;27;20646;-72
2020/12/17 19:38:26;;;;;;;28.67;7.47;;;;;;;;;;10449133;27;20590;-71
2020/12/17 19:43:29;;;;;;;21.37;7.53;;;;;;;;;;10430718;27;20250;-71
2020/12/17 19:48:31;;;;;;;20.80;7.60;;;;;;;;;;10447298;27;21885;-71
2020/12/17 19:53:34;;;;;;;31.80;8.43;;;;;;;;;;10434827;27;21039;-73
2020/12/17 19:58:37;;;;;;;23.07;8.87;;;;;;;;;;10435392;27;20219;-73
2020/12/17 20:03:39;;;;;;;22.90;8.70;;;;;;;;;;10449611;27;20712;-72
2020/12/17 20:08:40;;;;;;;21.50;7.90;;;;;;;;;;10442649;27;20218;-73
2020/12/17 20:13:43;;;;;;;22.30;8.10;;;;;;;;;;10429410;27;20214;-72
2020/12/17 20:18:45;;;;;;;22.40;7.17;;;;;;;;;;10429721;27;20394;-71
2020/12/17 20:23:47;;;;;;;21.90;7.20;;;;;;;;;;10422453;27;20238;-72
2020/12/17 20:28:50;;;;;;;24.67;7.47;;;;;;;;;;10428507;27;20208;-72
2020/12/17 20:33:52;;;;;;;21.13;7.60;;;;;;;;;;10441105;27;20241;-73
2020/12/17 20:38:54;;;;;;;16.67;7.33;;;;;;;;;;10433218;27;20239;-72
2020/12/17 20:43:58;;;;;;;15.97;6.40;;;;;;;;;;10431508;27;20967;-73
2020/12/17 20:48:59;;;;;;;17.07;6.33;;;;;;;;;;10432475;27;20235;-71
2020/12/17 20:54:01;;;;;;;15.23;6.90;;;;;;;;;;10440535;27;20218;-72
2020/12/17 20:59:04;;;;;;;23.57;7.57;;;;;;;;;;10435900;27;23140;-72
2020/12/17 21:04:06;;;;;;;20.57;6.50;;;;;;;;;;10433099;27;20239;-71
2020/12/17 21:09:08;;;;;;;21.67;7.13;;;;;;;;;;10427444;27;20210;-72
2020/12/17 21:14:10;;;;;;;17.07;7.40;;;;;;;;;;10428165;27;20212;-72
2020/12/17 21:19:12;;;;;;;17.10;6.57;;;;;;;;;;10423998;27;20218;-72
2020/12/17 21:24:14;;;;;;;17.73;6.90;;;;;;;;;;10429276;27;20235;-70
2020/12/17 21:29:17;;;;;;;22.13;7.27;;;;;;;;;;10426240;27;20208;-70
2020/12/17 21:34:19;;;;;;;16.80;6.53;;;;;;;;;;10431837;27;20219;-70
2020/12/17 21:39:21;;;;;;;19.27;6.73;;;;;;;;;;10432802;27;20830;-71
2020/12/17 21:44:25;;;;;;;20.33;7.60;;;;;;;;;;10427425;27;20243;-71
2020/12/17 21:49:27;;;;;;;18.47;7.63;;;;;;;;;;10422756;27;20219;-69
2020/12/17 21:54:28;;;;;;;23.50;7.57;;;;;;;;;;10438229;27;20689;-72
2020/12/17 21:59:31;;;;;;;17.03;7.33;;;;;;;;;;10433345;27;20212;-71
2020/12/17 22:04:33;;;;;;;22.43;7.03;;;;;;;;;;10430159;27;20732;-71
2020/12/17 22:09:35;;;;;;;24.37;6.53;;;;;;;;;;10427368;27;20219;-71
2020/12/17 22:14:37;;;;;;;24.70;6.73;;;;;;;;;;10434062;27;20223;-71
2020/12/17 22:19:39;;;;;;;16.73;6.20;;;;;;;;;;10428796;27;20215;-71
2020/12/17 22:24:41;;;;;;;17.47;6.57;;;;;;;;;;10426441;27;20473;-71
2020/12/17 22:29:44;;;;;;;24.33;6.60;;;;;;;;;;10430541;27;20215;-71
2020/12/17 22:34:45;;;;;;;18.67;6.73;;;;;;;;;;10436978;27;20211;-72
2020/12/17 22:39:47;;;;;;;19.83;6.37;;;;;;;;;;10431635;27;20227;-72
2020/12/17 22:44:50;;;;;;;18.13;6.63;;;;;;;;;;10454744;27;20239;-71
2020/12/17 22:49:52;;;;;;;19.97;6.90;;;;;;;;;;10440438;27;20207;-72
2020/12/17 22:54:54;;;;;;;16.97;6.70;;;;;;;;;;10439475;27;20591;-72
2020/12/17 22:59:57;;;;;;;16.83;6.43;;;;;;;;;;10437053;27;20214;-72
2020/12/17 23:04:59;;;;;;;15.27;6.53;;;;;;;;;;10430648;27;20246;-72
2020/12/17 23:10:00;;;;;;;17.33;6.27;;;;;;;;;;10436897;27;20207;-72
2020/12/17 23:15:03;;;;;;;18.00;5.90;;;;;;;;;;10433849;27;20227;-72
2020/12/17 23:20:05;;;;;;;16.30;6.37;;;;;;;;;;10442031;27;20215;-72
2020/12/17 23:25:07;;;;;;;17.00;6.60;;;;;;;;;;10432709;27;20794;-72
2020/12/17 23:30:10;;;;;;;14.60;6.23;;;;;;;;;;10439185;27;20212;-72
2020/12/17 23:35:12;;;;;;;17.83;6.60;;;;;;;;;;10430303;27;20265;-72
2020/12/17 23:40:14;;;;;;;19.97;6.90;;;;;;;;;;10433133;27;20236;-71
2020/12/17 23:45:17;;;;;;;18.73;7.03;;;;;;;;;;10431878;27;20242;-71
2020/12/17 23:50:20;;;;;;;19.30;6.90;;;;;;;;;;10446093;27;20566;-71
2020/12/17 23:55:22;;;;;;;20.20;7.67;;;;;;;;;;10425222;27;20226;-71
